createdAt,value
2018-02-24T00:00:30.237Z,17.98
2018-02-24T00:03:00.629Z,18.23
2018-02-24T00:05:29.168Z,18.40
2018-02-24T00:07:57.480Z,18.65
2018-02-24T00:10:25.820Z,18.40
2018-02-24T00:12:54.174Z,18.35
2018-02-24T00:15:22.590Z,16.83
2018-02-24T00:17:51.219Z,18.35
2018-02-24T00:20:20.325Z,18.00
2018-02-24T00:22:50.262Z,18.10
2018-02-24T00:25:19.208Z,19.40
2018-02-24T00:27:47.526Z,18.55
2018-02-24T00:30:15.865Z,17.95
2018-02-24T00:32:45.100Z,18.70
2018-02-24T00:35:13.417Z,18.87
2018-02-24T00:37:41.758Z,18.90
2018-02-24T00:40:10.162Z,17.83
2018-02-24T00:42:38.633Z,17.85
2018-02-24T00:45:07.000Z,18.98
2018-02-24T00:47:35.335Z,18.60
2018-02-24T00:50:04.433Z,16.92
2018-02-24T00:52:33.706Z,17.12
2018-02-24T00:55:02.832Z,16.67
2018-02-24T00:57:31.920Z,18.62
2018-02-24T01:00:01.044Z,18.80
2018-02-24T01:02:29.545Z,18.50
2018-02-24T01:04:57.975Z,17.98
2018-02-24T01:07:26.324Z,18.15
2018-02-24T01:09:55.422Z,17.87
2018-02-24T01:12:23.755Z,17.23
2018-02-24T01:14:52.108Z,16.95
2018-02-24T01:17:20.550Z,18.40
2018-02-24T01:19:48.946Z,17.20
2018-02-24T01:22:18.107Z,19.20
2018-02-24T01:24:46.594Z,17.65
2018-02-24T01:27:15.079Z,17.92
2018-02-24T01:29:44.213Z,17.60
2018-02-24T01:32:12.590Z,17.98
2018-02-24T01:34:40.917Z,18.10
2018-02-24T01:37:09.225Z,19.15
2018-02-24T01:39:39.712Z,17.55
2018-02-24T01:42:08.044Z,17.10
2018-02-24T01:44:36.499Z,18.25
2018-02-24T01:47:04.982Z,18.27
2018-02-24T01:49:33.367Z,19.08
2018-02-24T01:52:02.632Z,18.70
2018-02-24T01:54:31.096Z,18.55
2018-02-24T01:56:59.487Z,18.90
2018-02-24T01:59:28.908Z,18.65
2018-02-24T02:01:57.272Z,18.70
2018-02-24T02:04:25.628Z,19.75
2018-02-24T02:06:53.968Z,19.20
2018-02-24T02:09:22.453Z,19.98
2018-02-24T02:11:50.818Z,19.42
2018-02-24T02:14:19.907Z,19.90
2018-02-24T02:16:49.022Z,20.48
2018-02-24T02:19:18.084Z,18.87
2018-02-24T02:21:46.403Z,19.60
2018-02-24T02:24:15.626Z,20.58
2018-02-24T02:26:43.947Z,18.05
2018-02-24T02:29:13.145Z,19.83
2018-02-24T02:31:42.213Z,20.95
2018-02-24T02:34:10.532Z,18.75
2018-02-24T02:36:38.882Z,21.98
2018-02-24T02:39:07.981Z,20.10
2018-02-24T02:41:37.076Z,20.85
2018-02-24T02:44:06.155Z,20.48
2018-02-24T02:46:34.504Z,21.50
2018-02-24T02:49:02.990Z,18.87
2018-02-24T02:51:31.445Z,19.23
2018-02-24T02:53:59.776Z,20.15
2018-02-24T02:56:29.051Z,20.45
2018-02-24T02:58:58.223Z,17.75
2018-02-24T03:01:26.537Z,20.65
2018-02-24T03:03:55.010Z,18.87
2018-02-24T03:06:23.483Z,19.65
2018-02-24T03:08:52.056Z,20.02
2018-02-24T03:11:20.478Z,18.65
2018-02-24T03:13:49.707Z,18.40
2018-02-24T03:16:18.177Z,20.80
2018-02-24T03:18:46.611Z,19.37
2018-02-24T03:21:15.892Z,21.45
2018-02-24T03:23:44.261Z,20.88
2018-02-24T03:26:12.696Z,22.42
2018-02-24T03:28:41.584Z,20.73
2018-02-24T03:31:09.947Z,22.02
2018-02-24T03:33:39.054Z,21.02
2018-02-24T03:36:08.346Z,19.23
2018-02-24T03:38:36.674Z,21.42
2018-02-24T03:41:05.017Z,19.65
2018-02-24T03:43:34.059Z,18.95
2018-02-24T03:46:02.387Z,21.73
2018-02-24T03:48:30.783Z,20.33
2018-02-24T03:50:59.256Z,22.05
2018-02-24T03:53:27.831Z,22.30
2018-02-24T03:55:56.130Z,21.00
2018-02-24T03:58:24.564Z,20.00
2018-02-24T04:00:52.894Z,19.77
2018-02-24T04:03:21.219Z,19.27
2018-02-24T04:05:49.581Z,22.83
2018-02-24T04:08:18.821Z,21.65
2018-02-24T04:10:47.208Z,21.60
2018-02-24T04:13:15.793Z,20.88
2018-02-24T04:15:44.103Z,21.75
2018-02-24T04:18:12.486Z,21.55
2018-02-24T04:20:41.595Z,20.37
2018-02-24T04:23:09.946Z,20.15
2018-02-24T04:25:38.264Z,21.50
2018-02-24T04:28:06.597Z,20.80
2018-02-24T04:30:35.017Z,20.50
2018-02-24T04:33:03.351Z,20.95
2018-02-24T04:35:31.676Z,22.60
2018-02-24T04:38:00.117Z,21.75
2018-02-24T04:40:29.363Z,20.70
2018-02-24T04:42:57.701Z,22.10
2018-02-24T04:45:26.776Z,20.80
2018-02-24T04:47:55.092Z,22.00
2018-02-24T04:50:23.600Z,19.10
2018-02-24T04:52:51.928Z,19.40
2018-02-24T04:55:21.029Z,21.30
2018-02-24T04:57:50.145Z,20.85
2018-02-24T05:00:18.486Z,20.42
2018-02-24T05:02:47.576Z,21.55
2018-02-24T05:05:15.970Z,22.08
2018-02-24T05:07:44.352Z,22.33
2018-02-24T05:10:13.467Z,20.50
2018-02-24T05:12:41.793Z,22.65
2018-02-24T05:15:10.119Z,22.15
2018-02-24T05:17:38.498Z,20.58
2018-02-24T05:20:06.879Z,20.48
2018-02-24T05:22:35.317Z,22.10
2018-02-24T05:25:03.688Z,19.45
2018-02-24T05:27:32.808Z,25.25
2018-02-24T05:30:01.188Z,23.58
2018-02-24T05:32:29.531Z,22.62
2018-02-24T05:34:58.652Z,20.15
2018-02-24T05:37:27.209Z,21.60
2018-02-24T05:39:55.556Z,23.33
2018-02-24T05:42:23.894Z,20.17
2018-02-24T05:44:52.250Z,19.80
2018-02-24T05:47:21.859Z,19.92
2018-02-24T05:49:50.952Z,19.75
2018-02-24T05:52:20.057Z,20.02
2018-02-24T05:54:49.240Z,21.33
2018-02-24T05:57:17.622Z,20.05
2018-02-24T05:59:46.717Z,21.65
2018-02-24T06:02:15.894Z,20.35
2018-02-24T06:04:44.293Z,21.50
2018-02-24T06:07:13.693Z,21.87
2018-02-24T06:09:42.072Z,20.48
2018-02-24T06:12:10.444Z,20.60
2018-02-24T06:14:39.570Z,22.35
2018-02-24T06:17:07.900Z,18.17
2018-02-24T06:19:36.297Z,21.17
2018-02-24T06:22:05.420Z,19.48
2018-02-24T06:24:33.769Z,19.77
2018-02-24T06:27:02.114Z,20.40
2018-02-24T06:29:30.552Z,18.40
2018-02-24T06:31:58.854Z,21.00
2018-02-24T06:34:28.179Z,19.30
2018-02-24T06:36:57.699Z,20.45
2018-02-24T06:39:27.219Z,19.73
2018-02-24T06:41:55.565Z,22.35
2018-02-24T06:44:26.063Z,18.65
2018-02-24T06:46:54.432Z,20.48
2018-02-24T06:49:22.767Z,16.55
2018-02-24T06:51:51.988Z,18.55
2018-02-24T06:54:20.331Z,19.85
2018-02-24T06:56:48.690Z,18.15
2018-02-24T06:59:17.033Z,18.30
2018-02-24T07:01:45.378Z,20.58
2018-02-24T07:04:13.995Z,19.15
2018-02-24T07:06:42.366Z,21.25
2018-02-24T07:09:10.920Z,18.73
2018-02-24T07:11:39.282Z,20.02
2018-02-24T07:14:08.728Z,20.58
2018-02-24T07:16:37.096Z,19.10
2018-02-24T07:19:05.682Z,19.80
2018-02-24T07:21:34.039Z,20.40
2018-02-24T07:24:02.368Z,18.62
2018-02-24T07:26:30.829Z,17.60
2018-02-24T07:28:59.192Z,20.70
2018-02-24T07:31:27.809Z,19.90
2018-02-24T07:33:56.232Z,18.92
2018-02-24T07:36:24.555Z,20.60
2018-02-24T07:38:52.997Z,20.00
2018-02-24T07:41:21.587Z,20.40
2018-02-24T07:43:49.920Z,19.48
2018-02-24T07:46:19.027Z,19.85
2018-02-24T07:48:47.632Z,19.02
2018-02-24T07:51:16.849Z,18.48
2018-02-24T07:53:46.043Z,20.70
2018-02-24T07:56:14.510Z,20.77
2018-02-24T07:58:42.831Z,19.35
2018-02-24T08:01:11.492Z,19.40
2018-02-24T08:03:39.816Z,17.40
2018-02-24T08:06:08.927Z,18.25
2018-02-24T08:08:37.307Z,20.10
2018-02-24T08:11:05.659Z,18.40
2018-02-24T08:13:34.765Z,16.20
2018-02-24T08:16:03.093Z,16.77
2018-02-24T08:18:31.640Z,16.15
2018-02-24T08:21:00.058Z,14.52
2018-02-24T08:23:28.641Z,16.70
2018-02-24T08:25:56.988Z,15.68
2018-02-24T08:28:25.468Z,17.60
2018-02-24T08:30:53.980Z,16.30
2018-02-24T08:33:22.462Z,16.55
2018-02-24T08:35:50.851Z,15.20
2018-02-24T08:38:19.172Z,16.67
2018-02-24T08:40:47.523Z,16.27
2018-02-24T08:43:16.602Z,17.23
2018-02-24T08:45:45.768Z,16.27
2018-02-24T08:48:14.096Z,13.52
2018-02-24T08:50:42.440Z,16.95
2018-02-24T08:53:12.572Z,17.23
2018-02-24T08:55:41.680Z,13.90
2018-02-24T08:58:10.776Z,16.70
2018-02-24T09:00:39.905Z,16.30
2018-02-24T09:03:08.437Z,16.37
2018-02-24T09:05:36.842Z,18.40
2018-02-24T09:08:05.841Z,14.23
2018-02-24T09:10:34.253Z,16.23
2018-02-24T09:13:02.617Z,17.00
2018-02-24T09:15:30.970Z,18.25
2018-02-24T09:17:59.320Z,16.02
2018-02-24T09:20:28.413Z,15.15
2018-02-24T09:22:57.658Z,17.65
2018-02-24T09:25:26.334Z,15.65
2018-02-24T09:27:54.651Z,17.30
2018-02-24T09:30:23.124Z,17.08
2018-02-24T09:32:52.953Z,17.33
2018-02-24T09:35:22.259Z,17.80
2018-02-24T09:37:51.397Z,15.73
2018-02-24T09:40:19.724Z,17.73
2018-02-24T09:42:48.831Z,16.00
2018-02-24T09:45:17.213Z,16.35
2018-02-24T09:47:45.650Z,16.48
2018-02-24T09:50:13.968Z,17.58
2018-02-24T09:52:42.500Z,15.90
2018-02-24T09:55:10.842Z,16.08
2018-02-24T09:57:39.313Z,16.23
2018-02-24T10:00:07.664Z,16.50
2018-02-24T10:02:35.987Z,16.60
2018-02-24T10:05:04.340Z,15.90
2018-02-24T10:07:33.418Z,17.62
2018-02-24T10:10:02.627Z,17.30
2018-02-24T10:12:31.107Z,15.15
2018-02-24T10:15:00.296Z,17.10
2018-02-24T10:17:29.424Z,17.55
2018-02-24T10:19:57.757Z,15.23
2018-02-24T10:22:26.104Z,12.05
2018-02-24T10:24:54.464Z,16.62
2018-02-24T10:27:22.952Z,16.98
2018-02-24T10:29:51.494Z,15.40
2018-02-24T10:32:20.641Z,14.02
2018-02-24T10:34:48.952Z,14.93
2018-02-24T10:37:18.243Z,14.38
2018-02-24T10:39:47.379Z,15.15
2018-02-24T10:42:15.875Z,16.87
2018-02-24T10:44:44.200Z,13.38
2018-02-24T10:47:13.338Z,13.70
2018-02-24T10:49:41.714Z,14.00
2018-02-24T10:52:10.271Z,14.02
2018-02-24T10:54:38.885Z,14.40
2018-02-24T10:57:07.239Z,14.02
2018-02-24T10:59:35.665Z,13.20
2018-02-24T11:02:04.828Z,13.75
2018-02-24T11:04:33.206Z,12.80
2018-02-24T11:07:01.998Z,12.93
2018-02-24T11:09:30.388Z,13.85
2018-02-24T11:11:58.799Z,14.63
2018-02-24T11:14:27.633Z,12.75
2018-02-24T11:16:56.249Z,12.45
2018-02-24T11:19:24.815Z,12.82
2018-02-24T11:21:53.615Z,12.90
2018-02-24T11:24:22.274Z,12.70
2018-02-24T11:26:50.705Z,12.52
2018-02-24T11:29:20.444Z,12.77
2018-02-24T11:31:49.048Z,13.27
2018-02-24T11:34:17.875Z,13.25
2018-02-24T11:36:47.050Z,11.88
2018-02-24T11:39:15.366Z,13.70
2018-02-24T11:41:44.502Z,13.80
2018-02-24T11:44:13.026Z,12.68
2018-02-24T11:46:41.471Z,13.13
2018-02-24T11:49:10.462Z,13.13
2018-02-24T11:51:39.595Z,13.85
2018-02-24T11:54:08.939Z,14.20
2018-02-24T11:56:37.263Z,13.32
2018-02-24T11:59:05.625Z,14.05
2018-02-24T12:01:33.987Z,14.07
2018-02-24T12:04:02.369Z,12.57
2018-02-24T12:06:30.664Z,14.45
2018-02-24T12:08:59.003Z,13.38
2018-02-24T12:11:27.345Z,14.48
2018-02-24T12:13:56.417Z,13.90
2018-02-24T12:16:24.779Z,11.80
2018-02-24T12:18:53.332Z,14.45
2018-02-24T12:21:21.847Z,13.02
2018-02-24T12:23:50.343Z,12.02
2018-02-24T12:26:19.437Z,13.80
2018-02-24T12:28:48.740Z,11.33
2018-02-24T12:31:17.870Z,12.43
2018-02-24T12:33:46.459Z,11.10
2018-02-24T12:36:14.789Z,13.10
2018-02-24T12:38:43.463Z,12.65
2018-02-24T12:41:11.814Z,12.70
2018-02-24T12:43:40.309Z,11.93
2018-02-24T12:46:08.749Z,11.88
2018-02-24T12:48:37.078Z,10.38
2018-02-24T12:51:05.418Z,11.57
2018-02-24T12:53:33.765Z,10.25
2018-02-24T12:56:02.144Z,11.20
2018-02-24T12:58:30.572Z,10.13
2018-02-24T13:00:58.901Z,10.43
2018-02-24T13:03:27.344Z,11.07
2018-02-24T13:05:55.899Z,9.95
2018-02-24T13:08:24.215Z,10.57
2018-02-24T13:10:52.554Z,9.93
2018-02-24T13:13:20.956Z,9.50
2018-02-24T13:15:49.296Z,10.60
2018-02-24T13:18:17.686Z,10.15
2018-02-24T13:20:46.008Z,9.68
2018-02-24T13:23:15.116Z,9.90
2018-02-24T13:25:43.602Z,10.45
2018-02-24T13:28:11.939Z,9.23
2018-02-24T13:30:40.404Z,8.18
2018-02-24T13:33:09.062Z,8.93
2018-02-24T13:35:37.482Z,9.63
2018-02-24T13:38:06.164Z,9.40
2018-02-24T13:40:34.703Z,9.20
2018-02-24T13:43:03.610Z,8.70
2018-02-24T13:45:32.073Z,10.02
2018-02-24T13:48:00.646Z,10.57
2018-02-24T13:50:29.400Z,9.80
2018-02-24T13:52:58.039Z,9.20
2018-02-24T13:55:26.440Z,8.80
2018-02-24T13:57:55.040Z,8.68
2018-02-24T14:00:23.908Z,8.35
2018-02-24T14:02:52.315Z,8.63
2018-02-24T14:05:20.820Z,9.40
2018-02-24T14:07:49.165Z,9.30
2018-02-24T14:10:17.621Z,9.20
2018-02-24T14:12:47.841Z,9.40
2018-02-24T14:15:17.042Z,8.30
2018-02-24T14:17:46.224Z,8.07
2018-02-24T14:20:15.706Z,8.98
2018-02-24T14:22:46.248Z,8.32
2018-02-24T14:25:14.948Z,8.40
2018-02-24T14:27:47.710Z,8.25
2018-02-24T14:30:18.511Z,7.97
2018-02-24T14:32:47.739Z,8.32
2018-02-24T14:35:17.226Z,6.90
2018-02-24T14:37:45.581Z,6.70
2018-02-24T14:40:14.789Z,7.47
2018-02-24T14:42:44.161Z,6.90
2018-02-24T14:45:13.358Z,6.72
2018-02-24T14:47:42.824Z,7.10
2018-02-24T14:50:11.150Z,7.53
2018-02-24T14:52:41.175Z,10.32
2018-02-24T14:55:09.676Z,6.60
2018-02-24T14:57:39.356Z,6.10
2018-02-24T15:00:07.688Z,6.87
2018-02-24T15:02:36.191Z,6.90
2018-02-24T15:05:04.501Z,5.30
2018-02-24T15:07:33.679Z,6.62
2018-02-24T15:10:03.181Z,6.75
2018-02-24T15:12:32.398Z,5.53
2018-02-24T15:15:00.796Z,5.18
2018-02-24T15:17:29.264Z,5.32
2018-02-24T15:19:57.618Z,5.57
2018-02-24T15:22:26.883Z,5.18
2018-02-24T15:24:55.190Z,4.70
2018-02-24T15:27:24.664Z,5.22
2018-02-24T15:29:53.239Z,4.90
2018-02-24T15:32:21.801Z,5.50
2018-02-24T15:34:51.229Z,5.45
2018-02-24T15:37:19.609Z,5.55
2018-02-24T15:39:48.060Z,5.93
2018-02-24T15:42:16.453Z,5.78
2018-02-24T15:44:45.118Z,4.80
2018-02-24T15:47:13.572Z,5.00
2018-02-24T15:49:42.731Z,5.50
2018-02-24T15:52:11.977Z,5.43
2018-02-24T15:54:40.784Z,5.50
2018-02-24T15:57:10.084Z,5.95
2018-02-24T15:59:39.452Z,5.80
2018-02-24T16:02:10.957Z,5.75
2018-02-24T16:04:40.018Z,5.28
2018-02-24T16:07:08.628Z,5.62
2018-02-24T16:09:37.442Z,5.20
2018-02-24T16:12:05.902Z,5.87
2018-02-24T16:14:34.501Z,5.93
2018-02-24T16:17:03.999Z,5.80
2018-02-24T16:19:32.949Z,6.80
2018-02-24T16:22:01.746Z,6.72
2018-02-24T16:24:30.805Z,7.55
2018-02-24T16:26:59.203Z,6.78
2018-02-24T16:29:28.121Z,6.90
2018-02-24T16:31:56.593Z,7.10
2018-02-24T16:34:25.754Z,6.80
2018-02-24T16:36:54.503Z,7.15
2018-02-24T16:39:23.539Z,8.27
2018-02-24T16:41:52.365Z,7.00
2018-02-24T16:44:21.426Z,6.20
2018-02-24T16:46:50.568Z,9.00
2018-02-24T16:49:19.897Z,15.63
2018-02-24T16:51:49.956Z,11.30
2018-02-24T16:54:19.386Z,8.23
2018-02-24T16:56:48.540Z,8.52
2018-02-24T16:59:18.656Z,7.57
2018-02-24T17:01:48.892Z,7.57
2018-02-24T17:04:17.684Z,8.77
2018-02-24T17:06:49.649Z,9.70
2018-02-24T17:09:19.975Z,8.43
2018-02-24T17:11:49.564Z,8.45
2018-02-24T17:14:19.004Z,7.95
2018-02-24T17:16:47.825Z,8.18
2018-02-24T17:19:16.406Z,8.50
2018-02-24T17:21:44.978Z,9.18
2018-02-24T17:24:13.528Z,8.80
2018-02-24T17:26:42.808Z,9.98
2018-02-24T17:29:12.658Z,9.38
2018-02-24T17:31:42.717Z,8.05
2018-02-24T17:34:11.640Z,8.48
2018-02-24T17:36:40.943Z,8.98
2018-02-24T17:39:09.592Z,8.10
2018-02-24T17:41:38.079Z,8.70
2018-02-24T17:44:09.421Z,8.80
2018-02-24T17:46:38.273Z,8.00
2018-02-24T17:49:07.098Z,7.30
2018-02-24T17:51:36.632Z,7.30
2018-02-24T17:54:06.124Z,8.02
2018-02-24T17:56:35.514Z,7.35
2018-02-24T17:59:04.107Z,7.15
2018-02-24T18:01:33.180Z,6.10
2018-02-24T18:04:01.803Z,7.45
2018-02-24T18:06:30.404Z,8.20
2018-02-24T18:08:59.054Z,8.32
2018-02-24T18:11:28.329Z,6.65
2018-02-24T18:13:57.346Z,6.60
2018-02-24T18:16:25.932Z,7.25
2018-02-24T18:18:54.959Z,5.35
2018-02-24T18:21:23.469Z,6.75
2018-02-24T18:23:52.339Z,6.55
2018-02-24T18:26:21.136Z,6.28
2018-02-24T18:28:49.745Z,6.00
2018-02-24T18:31:18.760Z,6.45
2018-02-24T18:33:47.638Z,5.45
2018-02-24T18:36:17.412Z,5.37
2018-02-24T18:38:46.325Z,6.12
2018-02-24T18:41:15.965Z,5.47
2018-02-24T18:43:45.740Z,6.10
2018-02-24T18:46:14.364Z,5.47
2018-02-24T18:48:44.231Z,5.12
2018-02-24T18:51:14.211Z,5.47
2018-02-24T18:53:43.454Z,6.60
2018-02-24T18:56:12.274Z,5.85
2018-02-24T18:58:41.836Z,6.30
2018-02-24T19:01:10.628Z,6.20
2018-02-24T19:03:40.010Z,5.50
2018-02-24T19:06:09.018Z,6.10
2018-02-24T19:08:38.984Z,6.05
2018-02-24T19:11:08.441Z,5.00
2018-02-24T19:13:38.273Z,5.40
2018-02-24T19:16:07.245Z,5.53
2018-02-24T19:18:35.721Z,5.40
2018-02-24T19:21:04.269Z,5.55
2018-02-24T19:23:33.591Z,6.22
2018-02-24T19:26:02.761Z,6.28
2018-02-24T19:28:32.126Z,5.35
2018-02-24T19:31:00.716Z,5.25
2018-02-24T19:33:29.192Z,6.75
2018-02-24T19:35:57.644Z,5.45
2018-02-24T19:38:28.594Z,5.97
2018-02-24T19:40:58.443Z,5.20
2018-02-24T19:43:27.078Z,5.30
2018-02-24T19:45:56.261Z,5.68
2018-02-24T19:48:25.201Z,5.20
2018-02-24T19:50:54.048Z,5.10
2018-02-24T19:53:23.593Z,5.35
2018-02-24T19:55:53.206Z,4.93
2018-02-24T19:58:21.971Z,4.55
2018-02-24T20:00:50.798Z,5.00
2018-02-24T20:03:20.197Z,5.40
2018-02-24T20:05:50.036Z,3.87
2018-02-24T20:08:18.981Z,3.70
2018-02-24T20:10:47.946Z,5.18
2018-02-24T20:13:16.840Z,5.43
2018-02-24T20:15:46.624Z,4.18
2018-02-24T20:18:16.154Z,4.32
2018-02-24T20:20:44.993Z,4.25
2018-02-24T20:23:13.903Z,3.47
2018-02-24T20:25:42.460Z,4.43
2018-02-24T20:28:10.922Z,3.55
2018-02-24T20:30:40.552Z,2.80
2018-02-24T20:33:09.326Z,3.35
2018-02-24T20:35:37.930Z,3.15
2018-02-24T20:38:07.615Z,3.20
2018-02-24T20:40:37.592Z,3.00
2018-02-24T20:43:07.373Z,2.50
2018-02-24T20:45:36.164Z,2.53
2018-02-24T20:48:04.874Z,3.12
2018-02-24T20:50:36.839Z,3.15
2018-02-24T20:53:05.716Z,2.70
2018-02-24T20:55:35.852Z,3.60
2018-02-24T20:58:04.774Z,2.60
2018-02-24T21:00:33.404Z,3.10
2018-02-24T21:03:03.868Z,3.42
2018-02-24T21:05:33.696Z,2.58
2018-02-24T21:08:02.188Z,2.70
2018-02-24T21:10:31.808Z,2.53
2018-02-24T21:13:01.586Z,2.55
2018-02-24T21:15:30.203Z,3.53
2018-02-24T21:18:00.096Z,3.05
2018-02-24T21:20:28.779Z,2.58
2018-02-24T21:22:57.955Z,3.12
2018-02-24T21:25:27.535Z,3.35
2018-02-24T21:27:56.803Z,2.90
2018-02-24T21:30:25.562Z,2.80
2018-02-24T21:32:54.174Z,3.03
2018-02-24T21:35:23.154Z,2.75
2018-02-24T21:37:51.757Z,2.80
2018-02-24T21:40:21.678Z,3.00
2018-02-24T21:42:50.652Z,2.45
2018-02-24T21:45:20.463Z,3.10
2018-02-24T21:47:49.705Z,2.28
2018-02-24T21:50:19.686Z,3.15
2018-02-24T21:52:50.207Z,2.65
2018-02-24T21:55:19.195Z,2.90
2018-02-24T21:57:49.623Z,2.30
2018-02-24T22:00:18.067Z,2.95
2018-02-24T22:02:47.084Z,2.80
2018-02-24T22:05:15.809Z,2.87
2018-02-24T22:07:44.980Z,2.90
2018-02-24T22:10:13.896Z,2.75
2018-02-24T22:12:42.490Z,2.62
2018-02-24T22:15:11.498Z,3.35
2018-02-24T22:17:40.952Z,2.78
2018-02-24T22:20:11.408Z,3.53
2018-02-24T22:22:41.390Z,2.75
2018-02-24T22:25:10.020Z,3.53
2018-02-24T22:27:39.683Z,3.70
2018-02-24T22:30:10.012Z,3.35
2018-02-24T22:32:39.482Z,2.55
2018-02-24T22:35:08.039Z,2.97
2018-02-24T22:37:37.746Z,3.20
2018-02-24T22:40:06.576Z,2.70
2018-02-24T22:42:36.090Z,3.92
2018-02-24T22:45:04.988Z,3.58
2018-02-24T22:47:39.664Z,3.83
2018-02-24T22:50:08.331Z,3.90
2018-02-24T22:52:37.254Z,3.62
2018-02-24T22:55:06.569Z,3.20
2018-02-24T22:57:35.463Z,3.28
2018-02-24T23:00:04.059Z,3.55
2018-02-24T23:02:33.042Z,3.30
2018-02-24T23:05:01.822Z,3.58
2018-02-24T23:07:30.710Z,3.55
2018-02-24T23:10:00.039Z,3.60
2018-02-24T23:12:28.998Z,3.55
2018-02-24T23:14:58.010Z,4.12
2018-02-24T23:17:29.430Z,4.03
2018-02-24T23:19:59.923Z,3.60
2018-02-24T23:22:31.348Z,3.72
2018-02-24T23:25:00.515Z,3.75
2018-02-24T23:27:29.465Z,3.80
2018-02-24T23:29:59.145Z,3.65
2018-02-24T23:32:28.448Z,3.35
2018-02-24T23:34:57.614Z,3.00
2018-02-24T23:37:25.943Z,4.20
2018-02-24T23:39:55.127Z,3.60
2018-02-24T23:42:24.519Z,5.00
2018-02-24T23:44:53.246Z,4.50
2018-02-24T23:47:21.663Z,3.35
2018-02-24T23:49:50.074Z,4.60
2018-02-24T23:52:18.836Z,4.25
2018-02-24T23:54:48.172Z,4.28
2018-02-24T23:57:16.714Z,4.78
2018-02-24T23:59:46.092Z,4.20
